Time;durP1;ratioP1;P1;durP2;ratioP2;P2;SDS_P1;SDS_P2;PMS_P1;PMS_P2;Temp;Humidity;BMP_temperature;BMP_pressure;BME280_temperature;BME280_humidity;BME280_pressure;Samples;Min_cycle;Max_cycle;Signal;HPM_P1;HPM_P2
2022/06/01 00:00:37;;;;;;;2.12;1.65;;;22.60;67.90;;;;;;10979944;32;20053;-75
2022/06/01 00:06:39;;;;;;;6.53;3.22;;;22.60;68.10;;;;;;10979706;32;20022;-74
2022/06/01 00:12:42;;;;;;;5.05;3.53;;;22.60;68.10;;;;;;10979619;32;20045;-75
2022/06/01 00:18:43;;;;;;;5.45;3.55;;;22.40;68.20;;;;;;10552562;32;11974058;-75
2022/06/01 00:24:47;;;;;;;9.80;4.65;;;22.40;68.40;;;;;;10900124;32;20432;-75
2022/06/01 00:30:49;;;;;;;6.35;4.10;;;22.50;68.70;;;;;;10900439;32;20397;-75
2022/06/01 00:36:52;;;;;;;5.55;3.33;;;22.40;68.60;;;;;;10902868;32;20434;-75
2022/06/01 00:42:59;;;;;;;5.05;3.08;;;22.40;68.60;;;;;;10950673;32;20057;-74
2022/06/01 00:49:17;;;;;;;5.80;4.35;;;22.30;68.70;;;;;;10991629;32;20041;-75
2022/06/01 00:55:26;;;;;;;6.37;3.62;;;22.20;68.80;;;;;;10991391;32;20295;-74
2022/06/01 01:01:29;;;;;;;5.53;3.50;;;22.20;68.70;;;;;;10991310;32;20014;-75
2022/06/01 01:07:32;;;;;;;6.55;3.22;;;22.20;68.80;;;;;;10991341;32;20023;-75
2022/06/01 01:13:34;;;;;;;3.78;2.53;;;22.20;69.20;;;;;;10996358;27;20042;-74
2022/06/01 01:19:49;;;;;;;6.25;4.30;;;22.20;69.70;;;;;;10952498;32;20035;-74
2022/06/01 01:25:52;;;;;;;6.22;4.53;;;22.20;69.80;;;;;;10953775;32;20343;-74
2022/06/01 01:31:53;;;;;;;5.53;3.92;;;22.10;69.80;;;;;;10953176;32;20038;-75
2022/06/01 01:37:57;;;;;;;5.47;3.60;;;22.00;69.90;;;;;;10952841;32;20031;-75
2022/06/01 01:44:07;;;;;;;7.00;5.10;;;22.00;70.10;;;;;;10939768;32;20387;-75
2022/06/01 01:50:10;;;;;;;5.68;3.58;;;22.00;70.00;;;;;;10949505;32;20027;-74
2022/06/01 01:56:29;;;;;;;5.82;3.80;;;21.90;70.10;;;;;;10947237;32;20030;-75
2022/06/01 02:02:51;;;;;;;9.18;4.68;;;21.90;70.40;;;;;;10947869;32;20041;-74
2022/06/01 02:09:05;;;;;;;6.53;4.00;;;21.90;70.60;;;;;;10946811;32;20038;-74
2022/06/01 02:15:15;;;;;;;6.57;5.15;;;21.80;70.80;;;;;;10933083;32;20061;-74
2022/06/01 02:21:21;;;;;;;14.95;3.55;;;21.70;70.90;;;;;;10942628;32;20027;-74
2022/06/01 02:27:24;;;;;;;9.07;3.97;;;21.70;70.80;;;;;;10941935;32;20035;-74
2022/06/01 02:33:33;;;;;;;7.07;5.15;;;21.70;70.90;;;;;;10941666;32;20061;-74
2022/06/01 02:39:41;;;;;;;;;;;21.70;71.10;;;;;;10946030;32;20371;-74
2022/06/01 02:45:45;;;;;;;6.57;4.45;;;21.80;71.00;;;;;;10945438;32;19966;-74
2022/06/01 02:51:48;;;;;;;7.60;5.37;;;21.80;71.00;;;;;;10945345;32;20039;-74
2022/06/01 02:57:51;;;;;;;9.63;5.05;;;21.80;71.00;;;;;;10945178;32;20011;-74
2022/06/01 03:03:53;;;;;;;8.15;5.07;;;21.70;71.00;;;;;;10940453;32;20023;-74
2022/06/01 03:09:55;;;;;;;9.60;4.75;;;21.60;71.10;;;;;;10944680;32;20061;-74
2022/06/01 03:15:58;;;;;;;8.13;4.97;;;21.50;71.20;;;;;;10944511;32;20023;-75
2022/06/01 03:22:01;;;;;;;7.57;4.37;;;21.50;71.30;;;;;;10944255;32;20423;-74
2022/06/01 03:28:03;;;;;;;9.38;4.62;;;21.50;71.30;;;;;;10944094;32;20042;-75
2022/06/01 03:34:05;;;;;;;6.85;4.43;;;21.50;71.20;;;;;;10928039;32;20050;-76
2022/06/01 03:40:08;;;;;;;7.43;5.35;;;21.50;71.30;;;;;;10941803;32;20018;-76
2022/06/01 03:46:11;;;;;;;5.30;3.45;;;21.50;71.80;;;;;;10939130;32;20023;-76
2022/06/01 03:52:13;;;;;;;7.25;3.97;;;21.60;71.70;;;;;;10943254;32;20057;-76
2022/06/01 03:58:19;;;;;;;5.20;3.55;;;21.60;72.10;;;;;;10942894;32;20018;-75
2022/06/01 04:04:21;;;;;;;5.57;3.97;;;21.60;72.20;;;;;;10942743;32;20030;-75
2022/06/01 04:10:23;;;;;;;7.75;5.70;;;21.60;72.40;;;;;;10941797;32;20101;-75
2022/06/01 04:16:26;;;;;;;6.05;4.47;;;21.60;72.50;;;;;;10941916;32;20051;-76
2022/06/01 04:22:47;;;;;;;7.37;5.10;;;21.60;72.70;;;;;;10942363;32;20045;-76
2022/06/01 04:28:49;;;;;;;8.82;6.28;;;21.80;72.50;;;;;;10939013;32;20019;-76
2022/06/01 04:34:50;;;;;;;7.75;5.43;;;21.70;72.40;;;;;;10941985;32;20031;-76
2022/06/01 04:41:12;;;;;;;10.85;6.90;;;21.80;72.50;;;;;;10942043;32;20418;-76
2022/06/01 04:47:14;;;;;;;11.07;7.07;;;21.70;72.30;;;;;;10941852;32;20014;-75
2022/06/01 04:53:17;;;;;;;6.85;4.82;;;21.80;72.30;;;;;;10941606;32;20054;-76
2022/06/01 04:59:40;;;;;;;6.65;4.25;;;21.80;72.00;;;;;;10941627;32;20023;-76
2022/06/01 05:05:43;;;;;;;8.35;6.30;;;21.80;72.20;;;;;;10937341;32;20027;-76
2022/06/01 05:11:45;;;;;;;10.07;6.93;;;21.90;72.20;;;;;;10941553;32;20417;-77
2022/06/01 05:17:47;;;;;;;10.02;5.90;;;22.00;72.10;;;;;;10937966;32;20053;-76
2022/06/01 05:23:50;;;;;;;10.40;6.53;;;22.10;72.20;;;;;;10943187;32;20058;-76
2022/06/01 05:29:52;;;;;;;10.93;5.85;;;22.10;72.30;;;;;;10947818;32;20015;-76
2022/06/01 05:35:55;;;;;;;12.77;8.13;;;22.10;72.40;;;;;;10947981;32;20050;-76
2022/06/01 05:41:57;;;;;;;7.05;4.87;;;22.20;72.40;;;;;;10934258;32;20041;-76
2022/06/01 05:47:59;;;;;;;14.18;8.05;;;22.20;72.00;;;;;;10947699;32;20022;-76
2022/06/01 05:54:02;;;;;;;10.20;7.10;;;22.30;72.00;;;;;;10947439;32;20016;-76
2022/06/01 06:00:10;;;;;;;14.35;8.75;;;22.30;71.70;;;;;;10946989;32;20026;-76
2022/06/01 06:06:17;;;;;;;12.45;6.97;;;22.40;71.70;;;;;;10931671;32;20108;-76
2022/06/01 06:12:19;;;;;;;20.62;8.73;;;22.60;71.70;;;;;;10928872;32;20023;-77
2022/06/01 06:18:22;;;;;;;9.38;6.82;;;22.80;71.30;;;;;;10921992;32;20358;-76
2022/06/01 06:24:24;;;;;;;10.23;7.18;;;22.90;71.00;;;;;;10938098;32;20030;-77
2022/06/01 06:30:26;;;;;;;10.30;6.40;;;22.90;70.90;;;;;;10938162;32;20066;-77
2022/06/01 06:36:28;;;;;;;10.80;8.75;;;22.90;71.20;;;;;;10945298;32;20054;-77
2022/06/01 06:42:31;;;;;;;18.95;10.95;;;23.00;71.00;;;;;;10945762;32;20027;-76
2022/06/01 06:48:33;;;;;;;12.45;6.85;;;23.00;71.30;;;;;;10931946;32;20030;-75
2022/06/01 06:54:35;;;;;;;11.07;8.18;;;22.90;71.80;;;;;;10944874;32;20015;-76
2022/06/01 07:00:38;;;;;;;10.63;6.95;;;23.00;71.90;;;;;;10935836;32;20069;-76
2022/06/01 07:06:40;;;;;;;13.25;6.28;;;23.20;71.60;;;;;;10910654;32;20057;-77
2022/06/01 07:12:42;;;;;;;9.75;7.53;;;23.40;71.00;;;;;;10906802;32;20038;-75
2022/06/01 07:18:47;;;;;;;9.10;6.03;;;23.60;70.60;;;;;;10906507;32;20054;-75
2022/06/01 07:24:49;;;;;;;12.48;8.60;;;23.50;70.60;;;;;;10906453;32;20031;-77
2022/06/01 07:30:56;;;;;;;12.90;8.45;;;23.60;70.80;;;;;;10902259;32;20363;-77
2022/06/01 07:43:05;;;;;;;11.00;8.63;;;23.70;70.70;;;;;;10905904;32;20422;-76
2022/06/01 07:43:24;;;;;;;14.85;10.02;;;23.60;70.70;;;;;;10906187;32;20007;-75
2022/06/01 07:49:27;;;;;;;13.35;8.38;;;23.70;70.80;;;;;;10904866;32;20051;-76
2022/06/01 07:55:29;;;;;;;15.30;9.10;;;23.80;70.40;;;;;;10905290;32;20418;-76
2022/06/01 08:01:35;;;;;;;17.60;8.25;;;24.00;70.10;;;;;;10900189;32;20313;-76
2022/06/01 08:07:37;;;;;;;11.23;7.37;;;24.00;70.10;;;;;;10903507;32;20073;-76
2022/06/01 08:13:40;;;;;;;10.27;7.15;;;24.00;70.20;;;;;;10904904;32;20027;-76
2022/06/01 08:19:45;;;;;;;13.88;9.23;;;24.10;70.10;;;;;;10904813;32;20015;-77
2022/06/01 08:25:47;;;;;;;15.18;8.45;;;24.10;70.20;;;;;;10903931;32;20074;-75
2022/06/01 08:31:49;;;;;;;14.25;9.50;;;24.30;70.00;;;;;;10895022;32;20020;-77
2022/06/01 08:37:51;;;;;;;11.05;7.53;;;24.50;69.40;;;;;;10904132;32;20077;-77
2022/06/01 08:44:07;;;;;;;12.18;8.77;;;24.50;69.50;;;;;;10902842;32;20028;-77
2022/06/01 08:50:36;;;;;;;13.07;7.87;;;24.50;69.50;;;;;;10899678;32;20272;-76
2022/06/01 08:57:03;;;;;;;10.30;5.90;;;24.50;69.40;;;;;;10902638;32;20077;-76
2022/06/01 09:03:29;;;;;;;11.77;7.35;;;24.50;69.30;;;;;;10911204;32;20042;-77
2022/06/01 09:09:50;;;;;;;8.52;6.55;;;24.70;69.00;;;;;;10907076;32;20042;-74
2022/06/01 09:16:01;;;;;;;13.60;6.78;;;24.90;68.70;;;;;;10914554;27;20430;-76
2022/06/01 09:28:38;;;;;;;8.43;6.28;;;25.30;67.90;;;;;;10910555;32;20027;-76
2022/06/01 09:34:48;;;;;;;15.70;7.55;;;25.20;68.00;;;;;;10908031;32;20027;-75
2022/06/01 09:41:06;;;;;;;22.67;8.00;;;25.10;68.20;;;;;;10909735;32;20031;-75
2022/06/01 09:47:08;;;;;;;7.93;5.87;;;25.00;68.30;;;;;;10909772;32;20070;-75
2022/06/01 09:53:19;;;;;;;10.02;6.57;;;24.90;68.40;;;;;;10909143;32;20034;-75
2022/06/01 10:06:12;;;;;;;8.43;5.47;;;24.90;68.10;;;;;;10909373;32;20051;-74
2022/06/01 10:19:25;;;;;;;9.40;6.72;;;25.50;67.00;;;;;;10908153;32;20351;-74
2022/06/01 10:25:40;;;;;;;13.57;9.15;;;25.40;67.20;;;;;;10895267;32;20054;-75
2022/06/01 10:31:58;;;;;;;10.13;7.50;;;25.60;66.90;;;;;;10904389;32;20426;-74
2022/06/01 10:38:10;;;;;;;11.38;8.32;;;25.90;66.40;;;;;;10890515;32;20038;-77
2022/06/01 10:44:33;;;;;;;15.73;9.18;;;26.20;65.80;;;;;;10907982;32;20031;-74
2022/06/01 10:51:13;;;;;;;12.25;6.75;;;26.60;65.20;;;;;;10903701;32;20268;-75
2022/06/01 10:57:19;;;;;;;8.57;7.12;;;26.80;64.60;;;;;;10720118;33;20033;-74
2022/06/01 11:03:24;;;;;;;12.88;7.37;;;26.40;65.10;;;;;;10717448;33;20043;-74
2022/06/01 11:10:09;;;;;;;9.20;6.55;;;26.50;65.40;;;;;;10718417;33;20059;-74
2022/06/01 11:16:11;;;;;;;27.25;10.55;;;27.10;64.30;;;;;;10708934;33;20409;-74
2022/06/01 11:22:43;;;;;;;5.93;4.28;;;27.80;62.90;;;;;;10717699;33;20025;-74
2022/06/01 11:29:17;;;;;;;6.72;4.57;;;28.00;61.80;;;;;;10718903;32;20043;-74
2022/06/01 11:35:32;;;;;;;7.28;4.43;;;28.40;60.90;;;;;;10903704;32;20058;-75
2022/06/01 11:41:39;;;;;;;9.90;5.25;;;28.90;59.80;;;;;;10901742;32;20023;-75
2022/06/01 11:47:48;;;;;;;;;;;29.00;58.90;;;;;;10905045;32;20032;-73
2022/06/01 11:54:30;;;;;;;10.82;4.57;;;29.20;58.40;;;;;;10905362;32;19923;-77
2022/06/01 12:00:48;;;;;;;9.35;4.25;;;29.30;58.00;;;;;;10900993;32;20425;-75
2022/06/01 12:07:36;;;;;;;17.48;5.20;;;29.30;57.20;;;;;;10905089;32;20027;-74
2022/06/01 12:13:38;;;;;;;7.32;3.75;;;29.30;56.90;;;;;;10901749;32;20371;-75
2022/06/01 12:20:24;;;;;;;9.57;4.07;;;28.60;58.00;;;;;;10904442;32;20058;-76
2022/06/01 12:32:59;;;;;;;5.30;3.00;;;29.20;56.70;;;;;;10902456;32;20272;-75
2022/06/01 12:39:05;;;;;;;8.32;3.35;;;29.30;56.40;;;;;;10903836;32;20047;-74
2022/06/01 12:45:17;;;;;;;8.52;3.67;;;29.30;56.10;;;;;;10900766;32;20050;-75
2022/06/01 12:51:20;;;;;;;6.47;3.20;;;29.40;55.70;;;;;;10904186;32;20049;-75
2022/06/01 12:57:27;;;;;;;6.07;2.85;;;29.60;55.20;;;;;;10901786;32;20035;-75
2022/06/01 13:03:33;;;;;;;7.90;3.60;;;29.80;55.00;;;;;;10903943;32;20024;-75
2022/06/01 13:09:36;;;;;;;4.83;3.47;;;29.80;54.60;;;;;;10899924;32;20015;-76
2022/06/01 13:15:43;;;;;;;5.20;3.15;;;29.80;54.10;;;;;;10902455;32;20042;-79
2022/06/01 13:22:05;;;;;;;6.40;3.70;;;29.60;54.70;;;;;;10880378;32;20032;-79
2022/06/01 13:28:11;;;;;;;4.82;2.65;;;29.30;55.40;;;;;;10899213;32;20063;-77
2022/06/01 13:34:41;;;;;;;4.12;2.65;;;29.40;55.40;;;;;;10903314;32;20030;-79
2022/06/01 13:40:55;;;;;;;4.65;2.95;;;29.60;55.00;;;;;;10885212;32;20050;-77
2022/06/01 13:47:01;;;;;;;22.00;6.05;;;29.60;55.00;;;;;;10893886;32;20081;-78
2022/06/01 13:53:26;;;;;;;9.63;4.85;;;29.60;55.10;;;;;;10908662;32;20019;-79
2022/06/01 13:59:58;;;;;;;8.02;3.92;;;29.60;55.00;;;;;;10891895;32;20301;-74
2022/06/01 14:06:05;;;;;;;7.72;3.37;;;29.50;54.50;;;;;;10881444;32;20031;-75
2022/06/01 14:12:08;;;;;;;6.50;3.65;;;29.60;54.70;;;;;;10870902;32;20085;-75
2022/06/01 14:18:15;;;;;;;6.00;4.12;;;29.60;54.60;;;;;;10867407;32;20027;-75
2022/06/01 14:24:22;;;;;;;5.85;3.35;;;29.60;54.40;;;;;;10867138;32;20050;-75
2022/06/01 14:30:25;;;;;;;4.93;2.90;;;29.50;54.80;;;;;;10852547;32;20035;-75
2022/06/01 14:36:47;;;;;;;10.43;4.30;;;29.60;54.70;;;;;;10867215;32;20443;-75
2022/06/01 14:42:49;;;;;;;5.65;2.70;;;29.60;54.70;;;;;;10870152;32;20501;-75
2022/06/01 14:48:51;;;;;;;8.20;3.75;;;29.60;54.80;;;;;;10865952;32;20393;-75
2022/06/01 14:54:54;;;;;;;14.02;4.93;;;29.60;54.90;;;;;;10865598;32;20065;-75
2022/06/01 15:01:11;;;;;;;8.18;3.75;;;29.60;55.20;;;;;;10865322;32;20039;-74
2022/06/01 15:07:13;;;;;;;10.13;3.27;;;29.60;55.40;;;;;;10873251;32;20066;-75
2022/06/01 15:13:18;;;;;;;11.48;4.10;;;29.50;55.50;;;;;;10875715;32;20019;-75
2022/06/01 15:19:22;;;;;;;13.20;4.03;;;29.60;55.30;;;;;;10868889;32;20023;-74
2022/06/01 15:25:47;;;;;;;9.75;3.40;;;29.60;55.40;;;;;;10855769;32;20042;-80
2022/06/01 15:44:33;;;;;;;7.15;4.12;;;29.70;55.40;;;;;;10869217;32;20047;-79
2022/06/01 15:50:40;;;;;;;9.73;4.10;;;29.70;55.30;;;;;;10867096;32;20038;-80
2022/06/01 15:56:44;;;;;;;;;;;29.60;55.70;;;;;;10869060;32;20324;-78
2022/06/01 16:02:57;;;;;;;5.60;3.45;;;29.60;56.10;;;;;;10853792;32;19953;-75
2022/06/01 16:08:59;;;;;;;6.75;3.65;;;29.50;55.70;;;;;;10863223;32;20046;-76
2022/06/01 16:15:02;;;;;;;9.43;3.42;;;29.50;55.80;;;;;;10862816;32;20023;-75
2022/06/01 16:21:04;;;;;;;6.95;3.95;;;29.60;55.20;;;;;;10866680;32;20050;-75
2022/06/01 16:27:07;;;;;;;4.82;3.03;;;29.60;55.30;;;;;;10869116;32;20031;-75
2022/06/01 16:33:15;;;;;;;7.62;3.92;;;29.70;55.20;;;;;;10862041;32;20051;-75
2022/06/01 16:39:22;;;;;;;4.87;2.75;;;29.70;54.90;;;;;;10863536;32;20180;-76
2022/06/01 16:45:28;;;;;;;6.53;3.80;;;29.70;54.70;;;;;;10892920;32;20332;-75
2022/06/01 16:51:31;;;;;;;10.48;4.12;;;29.50;54.80;;;;;;10900797;32;20065;-76
2022/06/01 16:57:33;;;;;;;4.70;1.85;;;29.40;55.10;;;;;;10903430;32;20046;-76
2022/06/01 17:03:35;;;;;;;6.40;2.83;;;29.30;55.40;;;;;;10888392;32;20074;-75
2022/06/01 17:09:40;;;;;;;5.90;2.70;;;29.50;55.10;;;;;;10890490;32;20165;-75
2022/06/01 17:15:42;;;;;;;12.57;4.45;;;29.50;55.00;;;;;;10938021;27;20053;-75
2022/06/01 17:21:45;;;;;;;9.52;3.47;;;29.50;54.90;;;;;;11020586;32;20026;-75
2022/06/01 17:27:48;;;;;;;16.60;3.55;;;29.30;54.80;;;;;;10983993;32;20080;-76
2022/06/01 17:33:50;;;;;;;6.70;2.42;;;29.30;55.00;;;;;;10984841;32;20027;-75
2022/06/01 17:39:52;;;;;;;7.37;2.60;;;29.30;54.90;;;;;;10984650;32;20057;-75
2022/06/01 17:45:55;;;;;;;4.10;2.47;;;29.30;55.00;;;;;;10984578;32;20019;-76
2022/06/01 17:51:57;;;;;;;4.70;2.30;;;29.60;54.10;;;;;;10984125;32;20018;-76
2022/06/01 17:58:02;;;;;;;5.28;2.72;;;30.00;53.30;;;;;;10983802;32;20018;-76
2022/06/01 18:04:04;;;;;;;2.62;1.80;;;30.10;53.10;;;;;;11001494;32;20339;-76
2022/06/01 18:10:07;;;;;;;5.72;2.45;;;29.50;54.10;;;;;;11017609;32;20019;-76
2022/06/01 18:16:21;;;;;;;3.95;2.15;;;29.10;54.90;;;;;;11017214;32;20026;-75
2022/06/01 18:22:23;;;;;;;4.97;3.08;;;28.80;55.90;;;;;;11021419;32;20019;-76
2022/06/01 18:28:28;;;;;;;5.80;3.20;;;28.30;56.70;;;;;;11018561;32;20322;-76
2022/06/01 18:34:49;;;;;;;4.87;2.00;;;28.10;57.10;;;;;;11016494;32;20041;-76
2022/06/01 18:40:52;;;;;;;7.40;2.37;;;27.90;57.40;;;;;;11021185;32;20026;-76
2022/06/01 18:46:54;;;;;;;5.20;2.03;;;27.80;57.60;;;;;;11014181;32;20033;-76
2022/06/01 18:53:00;;;;;;;2.53;1.87;;;27.80;57.80;;;;;;10988044;32;20038;-76
2022/06/01 18:59:03;;;;;;;2.28;1.65;;;27.60;57.90;;;;;;10991496;32;20057;-76
2022/06/01 19:05:07;;;;;;;4.35;2.72;;;27.50;58.20;;;;;;10993179;32;20068;-75
2022/06/01 19:11:12;;;;;;;4.05;2.03;;;27.40;58.40;;;;;;10981955;32;20417;-75
2022/06/01 19:17:17;;;;;;;4.50;2.90;;;27.30;58.70;;;;;;10966669;32;20383;-75
2022/06/01 19:23:19;;;;;;;6.40;3.47;;;27.20;59.70;;;;;;10984838;32;20503;-76
2022/06/01 19:29:33;;;;;;;5.53;2.58;;;27.00;60.20;;;;;;10982579;32;20440;-76
2022/06/01 19:35:36;;;;;;;7.37;2.95;;;26.90;60.40;;;;;;10982796;32;20023;-77
2022/06/01 19:47:59;;;;;;;6.95;3.87;;;26.80;60.90;;;;;;11012103;32;20026;-75
2022/06/01 19:54:01;;;;;;;5.37;2.17;;;26.70;61.00;;;;;;11014705;32;20044;-75
2022/06/01 20:00:06;;;;;;;6.90;3.30;;;26.70;61.10;;;;;;11014478;32;20030;-75
2022/06/01 20:06:10;;;;;;;5.80;2.72;;;26.60;61.50;;;;;;11018878;32;20053;-75
2022/06/01 20:18:59;;;;;;;6.90;3.10;;;26.50;62.30;;;;;;11018491;32;20022;-74
2022/06/01 20:25:01;;;;;;;4.68;3.17;;;26.40;62.50;;;;;;11017281;32;20022;-74
2022/06/01 20:31:04;;;;;;;8.68;2.60;;;26.30;62.60;;;;;;11015940;32;20034;-74
2022/06/01 20:37:07;;;;;;;4.70;2.35;;;26.30;62.70;;;;;;11017486;32;20061;-77
2022/06/01 20:43:10;;;;;;;5.62;2.78;;;26.20;62.60;;;;;;11014398;32;20398;-77
2022/06/01 20:49:13;;;;;;;8.27;3.33;;;26.20;62.70;;;;;;11017651;32;20151;-76
2022/06/01 20:55:16;;;;;;;8.82;2.97;;;26.10;62.90;;;;;;11020264;32;20034;-76
2022/06/01 21:01:18;;;;;;;8.90;3.17;;;26.10;63.00;;;;;;11024956;32;20077;-76
2022/06/01 21:07:22;;;;;;;7.07;3.83;;;26.10;63.10;;;;;;11025067;32;20416;-76
2022/06/01 21:13:24;;;;;;;5.03;3.28;;;26.00;63.40;;;;;;11024620;32;20027;-77
2022/06/01 21:19:26;;;;;;;8.30;3.70;;;26.00;63.40;;;;;;11024124;32;20283;-76
2022/06/01 21:25:28;;;;;;;3.72;2.60;;;25.90;63.50;;;;;;11020321;32;20246;-77
2022/06/01 21:31:30;;;;;;;7.30;2.92;;;25.80;63.70;;;;;;11024243;32;20019;-77
2022/06/01 21:37:33;;;;;;;4.82;3.15;;;25.80;63.90;;;;;;11023830;32;20030;-76
2022/06/01 21:43:35;;;;;;;7.72;3.55;;;25.80;64.10;;;;;;11019295;32;20441;-77
2022/06/01 21:49:39;;;;;;;3.87;2.65;;;25.80;64.20;;;;;;11020951;32;20067;-75
2022/06/01 21:55:41;;;;;;;7.82;4.82;;;25.70;64.50;;;;;;11008794;32;20036;-74
2022/06/01 22:01:43;;;;;;;7.53;3.37;;;25.40;65.90;;;;;;11022685;32;20052;-75
2022/06/01 22:07:46;;;;;;;12.25;4.50;;;25.30;66.30;;;;;;11021686;32;20061;-75
2022/06/01 22:13:48;;;;;;;7.95;4.65;;;25.30;66.70;;;;;;11019590;32;20073;-77
2022/06/01 22:19:50;;;;;;;7.25;3.62;;;25.30;67.00;;;;;;11022535;32;20068;-76
2022/06/01 22:25:52;;;;;;;12.05;4.45;;;25.30;66.90;;;;;;11022473;32;20049;-76
2022/06/01 22:31:55;;;;;;;10.73;3.83;;;25.20;66.80;;;;;;11018010;32;20417;-76
2022/06/01 22:38:00;;;;;;;5.43;3.60;;;25.10;67.40;;;;;;11008319;32;20052;-75
2022/06/01 22:44:08;;;;;;;8.10;3.92;;;25.00;68.20;;;;;;11021720;32;20049;-76
2022/06/01 22:50:14;;;;;;;6.12;3.90;;;25.00;68.20;;;;;;11005534;32;20030;-75
2022/06/01 22:56:15;;;;;;;8.98;5.22;;;25.00;68.00;;;;;;11021360;32;20403;-76
2022/06/01 23:02:17;;;;;;;7.85;3.67;;;24.80;68.80;;;;;;11003774;32;20057;-76
2022/06/01 23:08:19;;;;;;;8.10;4.43;;;24.80;68.90;;;;;;11020893;32;20331;-76
2022/06/01 23:14:21;;;;;;;6.75;4.18;;;24.80;68.80;;;;;;11006957;32;20025;-76
2022/06/01 23:20:26;;;;;;;7.18;3.95;;;24.80;69.20;;;;;;11019932;32;20031;-76
2022/06/01 23:26:29;;;;;;;9.20;3.87;;;24.80;69.20;;;;;;11020093;32;20065;-76
2022/06/01 23:33:09;;;;;;;12.57;4.90;;;24.70;69.10;;;;;;11020049;32;20433;-77
2022/06/01 23:39:13;;;;;;;9.90;4.78;;;24.70;69.10;;;;;;11018744;32;20038;-76
2022/06/01 23:45:44;;;;;;;12.95;5.12;;;24.80;69.20;;;;;;11001804;32;20394;-76
2022/06/01 23:52:11;;;;;;;9.90;5.78;;;24.70;69.20;;;;;;11020568;32;20064;-76
2022/06/01 23:58:37;;;;;;;7.20;4.50;;;24.60;69.30;;;;;;11014754;32;20034;-77
